Terminal Aerodrome Forecast
Issued by NWS

Home | Current Version | Previous Version | Text Only | Print | Product List | Glossary On
Versions: 1 2 3 4 5 6 7 8 9 10 11 12 13 14 15 16 17 18 19 20 21 22 23 24 25 26
219
FTUS44 KOUN 140520
TAFLAW
TAF
KLAW 140520Z 1406/1506 15014KT P6SM FEW250
     FM141200 18004KT 5SM BR SCT007
     FM141500 01012G20KT P6SM BKN250
     FM142100 01010KT P6SM BKN250
     FM150000 02004KT P6SM BKN250=

USA.gov is the U.S. government's official web portal to all federal, state and local government web resources and services.